Time;durP1;ratioP1;P1;durP2;ratioP2;P2;SDS_P1;SDS_P2;PMS_P1;PMS_P2;Temp;Humidity;BMP_temperature;BMP_pressure;BME280_temperature;BME280_humidity;BME280_pressure;Samples;Min_cycle;Max_cycle;Signal;HPM_P1;HPM_P2
2024/02/25 00:01:03;;;;;;;4.60;3.50;;;2.40;99.90;;;1.61;100.00;97051.72;5064378;28;20459;-73
2024/02/25 00:03:30;;;;;;;4.23;3.27;;;2.40;99.90;;;1.58;100.00;97059.22;5066509;28;20459;-71
2024/02/25 00:05:59;;;;;;;3.70;3.30;;;2.40;99.90;;;1.57;100.00;97058.38;5051487;28;20537;-74
2024/02/25 00:08:25;;;;;;;3.80;3.50;;;2.50;99.90;;;1.58;100.00;97049.38;5057239;28;20564;-73
2024/02/25 00:10:52;;;;;;;3.90;3.50;;;2.40;99.90;;;1.63;100.00;97060.34;5052596;28;20450;-73
2024/02/25 00:13:20;;;;;;;7.50;3.33;;;2.50;99.90;;;1.65;100.00;97054.81;5053697;28;20540;-73
2024/02/25 00:15:47;;;;;;;4.70;3.67;;;2.50;99.90;;;1.63;100.00;97063.00;5071649;28;20459;-73
2024/02/25 00:18:15;;;;;;;4.30;3.10;;;2.50;99.90;;;1.66;100.00;97051.13;5054786;28;20539;-74
2024/02/25 00:20:42;;;;;;;3.80;3.27;;;2.50;99.90;;;1.74;100.00;97060.88;5050777;28;20840;-73
2024/02/25 00:23:10;;;;;;;4.07;3.23;;;2.50;99.90;;;1.80;100.00;97063.63;5047563;28;20477;-74
2024/02/25 00:25:38;;;;;;;3.20;2.87;;;2.60;99.90;;;1.85;100.00;97071.09;5066781;28;20536;-74
2024/02/25 00:28:06;;;;;;;4.70;3.73;;;2.70;99.90;;;1.83;100.00;97057.13;5062246;28;21172;-73
2024/02/25 00:30:33;;;;;;;3.50;3.20;;;2.70;99.90;;;2.00;100.00;97062.28;5047560;28;20454;-73
2024/02/25 00:33:00;;;;;;;3.87;3.20;;;2.80;99.90;;;2.05;100.00;97070.56;5046537;28;20468;-72
2024/02/25 00:35:27;;;;;;;5.67;3.90;;;2.80;99.90;;;2.01;100.00;97070.09;5043691;28;20465;-73
2024/02/25 00:37:55;;;;;;;4.77;4.00;;;2.80;99.90;;;2.03;100.00;97067.22;5046577;28;20456;-74
2024/02/25 00:40:23;;;;;;;4.60;3.77;;;2.80;99.90;;;2.09;100.00;97062.00;5054494;28;20452;-74
2024/02/25 00:42:50;;;;;;;4.03;3.37;;;2.90;99.90;;;2.21;100.00;97064.19;5049419;28;20454;-74
2024/02/25 00:45:18;;;;;;;4.43;3.10;;;2.90;99.90;;;2.20;100.00;97078.53;5068651;28;21316;-73
2024/02/25 00:47:45;;;;;;;3.50;3.20;;;2.90;99.90;;;2.23;100.00;97068.34;5066256;28;20459;-72
2024/02/25 00:50:13;;;;;;;3.30;3.00;;;3.00;99.90;;;2.20;100.00;97060.72;5036243;28;20455;-74
2024/02/25 00:52:40;;;;;;;5.10;3.20;;;2.90;99.90;;;2.21;100.00;97053.53;5048774;28;20452;-72
2024/02/25 00:55:08;;;;;;;9.00;3.03;;;2.90;99.90;;;2.24;100.00;97064.66;5037571;28;20446;-72
2024/02/25 00:57:39;;;;;;;4.70;3.97;;;2.90;99.90;;;2.17;100.00;97047.75;5054822;28;20458;-74
2024/02/25 01:00:08;;;;;;;4.17;3.07;;;2.90;99.90;;;2.10;100.00;97042.31;5059638;28;20463;-73
2024/02/25 01:02:36;;;;;;;3.50;3.00;;;2.90;99.90;;;2.10;100.00;97031.66;5043685;28;20437;-73
2024/02/25 01:05:03;;;;;;;3.47;3.17;;;2.90;99.90;;;2.14;100.00;97056.13;5070757;28;20455;-73
2024/02/25 01:07:31;;;;;;;4.00;3.60;;;2.90;99.90;;;2.12;100.00;97055.47;5057073;28;20477;-72
2024/02/25 01:09:58;;;;;;;3.20;2.90;;;2.80;99.90;;;2.02;100.00;97034.44;5045391;28;20465;-72
2024/02/25 01:12:26;;;;;;;4.63;3.50;;;2.80;99.90;;;2.08;100.00;97043.53;5073105;28;20465;-73
2024/02/25 01:14:54;;;;;;;3.97;3.63;;;2.80;99.90;;;1.73;100.00;96987.31;5051255;28;20953;-73
2024/02/25 01:17:22;;;;;;;4.17;3.77;;;2.80;99.90;;;2.17;100.00;97045.06;5071639;28;20803;-73
2024/02/25 01:19:49;;;;;;;3.40;3.10;;;2.80;99.90;;;2.09;100.00;97045.19;5057374;28;20445;-73
2024/02/25 01:22:16;;;;;;;3.90;3.57;;;2.80;99.90;;;2.08;100.00;97047.00;5041760;28;20446;-73
2024/02/25 01:24:44;;;;;;;3.30;3.00;;;2.70;99.90;;;2.06;100.00;97051.72;5047360;28;20453;-75
2024/02/25 01:27:11;;;;;;;3.50;3.20;;;2.70;99.90;;;2.13;100.00;97051.78;5064594;28;20462;-74
2024/02/25 01:29:40;;;;;;;3.80;3.23;;;2.70;99.90;;;2.09;100.00;97051.34;5042105;28;20456;-74
2024/02/25 01:32:08;;;;;;;4.50;3.60;;;2.70;99.90;;;2.10;100.00;97052.97;5043991;28;20454;-73
2024/02/25 01:34:35;;;;;;;3.10;2.80;;;2.70;99.90;;;2.11;100.00;97040.50;5050931;28;20565;-75
2024/02/25 01:37:04;;;;;;;4.27;3.73;;;2.70;99.90;;;2.17;100.00;97050.41;5053851;28;20452;-74
2024/02/25 01:39:31;;;;;;;4.47;3.80;;;2.80;99.90;;;2.13;100.00;97035.81;5046372;28;20450;-73
2024/02/25 01:41:59;;;;;;;3.63;3.17;;;2.80;99.90;;;2.16;100.00;97046.09;5050623;28;20453;-74
2024/02/25 01:44:26;;;;;;;4.27;3.90;;;2.80;99.90;;;2.04;100.00;97045.75;5047733;28;20475;-73
2024/02/25 01:46:56;;;;;;;4.60;4.20;;;2.70;99.90;;;1.97;100.00;97042.16;5046099;28;20466;-72
2024/02/25 01:49:25;;;;;;;4.20;3.70;;;2.60;99.90;;;1.81;100.00;97037.84;5049452;28;20860;-73
2024/02/25 01:51:54;;;;;;;4.03;3.60;;;2.50;99.90;;;1.93;100.00;97047.03;5042731;28;20454;-73
2024/02/25 01:54:21;;;;;;;4.43;3.90;;;2.50;99.90;;;1.87;100.00;97034.44;5062175;28;20472;-73
2024/02/25 01:56:49;;;;;;;5.60;4.20;;;2.50;99.90;;;1.91;100.00;97045.56;5046453;28;20450;-74
2024/02/25 01:59:16;;;;;;;5.30;4.80;;;2.50;99.90;;;1.88;100.00;97041.41;5045308;28;20468;-74
2024/02/25 02:01:43;;;;;;;4.67;4.20;;;2.50;99.90;;;1.92;100.00;97040.06;5046547;28;20870;-73
2024/02/25 02:04:10;;;;;;;8.70;5.30;;;2.50;99.90;;;2.01;100.00;97035.47;5045321;28;20441;-73
2024/02/25 02:06:38;;;;;;;4.63;4.10;;;2.60;99.90;;;1.98;100.00;97043.81;5048690;28;20472;-73
2024/02/25 02:09:08;;;;;;;5.20;4.60;;;2.60;99.90;;;1.86;100.00;97037.31;5051057;28;20452;-73
2024/02/25 02:11:35;;;;;;;4.83;4.33;;;2.50;99.90;;;1.86;100.00;97035.44;5069660;28;20463;-73
2024/02/25 02:14:02;;;;;;;7.00;5.47;;;2.60;99.90;;;1.86;100.00;97046.09;5072496;28;20447;-73
2024/02/25 02:16:30;;;;;;;5.30;4.80;;;2.60;99.90;;;1.83;100.00;97034.00;5046103;28;20450;-74
2024/02/25 02:18:57;;;;;;;5.13;4.63;;;2.50;99.90;;;1.87;100.00;97021.13;5045746;28;20839;-74
2024/02/25 02:21:26;;;;;;;5.23;4.73;;;2.60;99.90;;;1.72;100.00;97025.63;5070639;28;20462;-74
2024/02/25 02:23:54;;;;;;;5.30;4.80;;;2.40;99.90;;;1.70;100.00;97017.81;5040677;28;20454;-74
2024/02/25 02:26:22;;;;;;;5.50;4.60;;;2.30;99.90;;;1.65;100.00;97022.84;5046786;28;20501;-73
2024/02/25 02:28:50;;;;;;;5.43;4.93;;;2.30;99.90;;;1.77;100.00;97029.38;5043854;28;20450;-73
2024/02/25 02:31:18;;;;;;;8.00;5.30;;;2.40;99.90;;;1.75;100.00;97022.59;5052683;28;20451;-72
2024/02/25 02:33:46;;;;;;;5.00;4.27;;;2.40;99.90;;;1.69;100.00;97024.97;5037543;28;20468;-73
2024/02/25 02:36:13;;;;;;;5.33;4.83;;;2.50;99.90;;;1.69;100.00;97024.16;5036039;28;20451;-72
2024/02/25 02:38:43;;;;;;;8.47;5.10;;;2.40;99.90;;;1.64;100.00;97032.69;5044201;28;21327;-72
2024/02/25 02:41:10;;;;;;;5.93;4.93;;;2.40;99.90;;;1.68;100.00;97026.00;5054698;28;20457;-72
2024/02/25 02:43:38;;;;;;;5.23;4.43;;;2.40;99.90;;;1.62;100.00;97025.88;5055605;28;20990;-72
2024/02/25 02:46:05;;;;;;;5.27;4.77;;;2.40;99.90;;;1.70;100.00;97037.28;5047548;28;20683;-73
2024/02/25 02:48:32;;;;;;;5.20;4.70;;;2.40;99.90;;;1.55;100.00;97013.31;5047427;28;20996;-74
2024/02/25 02:51:00;;;;;;;6.47;4.63;;;2.40;99.90;;;1.61;100.00;97019.75;5047818;28;20817;-73
2024/02/25 02:53:27;;;;;;;6.03;4.53;;;2.40;99.90;;;1.57;100.00;97026.44;5046832;28;20447;-73
2024/02/25 02:55:55;;;;;;;6.37;5.30;;;2.40;99.90;;;1.65;100.00;97028.19;5054429;28;20434;-74
2024/02/25 02:58:23;;;;;;;5.40;4.90;;;2.40;99.90;;;1.53;100.00;97007.34;5048705;28;20456;-73
2024/02/25 03:00:50;;;;;;;6.00;5.40;;;2.40;99.90;;;1.70;100.00;97021.31;5052258;28;20469;-72
2024/02/25 03:03:16;;;;;;;5.70;5.00;;;2.40;99.90;;;1.58;100.00;97021.94;5045692;28;20454;-74
2024/02/25 03:05:43;;;;;;;4.50;4.10;;;2.40;99.90;;;1.55;100.00;97025.78;5046789;28;20513;-73
2024/02/25 03:08:10;;;;;;;6.77;4.87;;;2.30;99.90;;;1.62;100.00;97018.75;5073139;28;20473;-80
2024/02/25 03:10:38;;;;;;;6.13;5.40;;;2.20;99.90;;;1.59;100.00;97019.09;5056744;28;20460;-82
2024/02/25 03:13:06;;;;;;;6.57;5.10;;;2.30;99.90;;;1.67;100.00;97024.34;5048582;28;20491;-78
2024/02/25 03:15:33;;;;;;;6.43;5.73;;;2.30;99.90;;;1.50;100.00;97020.19;5055988;28;20533;-82
2024/02/25 03:18:02;;;;;;;8.10;6.13;;;2.20;99.90;;;1.55;100.00;97020.47;5046501;28;20458;-76
2024/02/25 03:20:29;;;;;;;6.23;5.57;;;2.30;99.90;;;1.68;100.00;97025.19;5059214;28;20484;-79
2024/02/25 03:22:56;;;;;;;6.57;5.30;;;2.40;99.90;;;1.61;100.00;97011.78;5056774;28;20479;-82
2024/02/25 03:25:24;;;;;;;6.40;5.80;;;2.40;99.90;;;1.65;100.00;97017.53;5037491;28;20449;-78
2024/02/25 03:27:51;;;;;;;5.43;4.93;;;2.40;99.90;;;1.62;100.00;97025.88;5047309;28;20630;-77
2024/02/25 03:30:21;;;;;;;7.60;5.43;;;2.40;99.90;;;1.64;100.00;97015.88;5050973;28;20491;-78
2024/02/25 03:32:49;;;;;;;6.27;5.67;;;2.40;99.90;;;1.49;100.00;96995.41;5060217;28;20446;-72
2024/02/25 03:35:16;;;;;;;6.67;5.53;;;2.40;99.90;;;1.59;100.00;97011.09;5049108;28;20457;-81
2024/02/25 03:37:44;;;;;;;6.77;5.33;;;2.40;99.90;;;1.47;100.00;97013.38;5067988;28;20460;-75
2024/02/25 03:40:12;;;;;;;6.77;5.80;;;2.30;99.90;;;1.42;100.00;97011.28;5070691;28;20436;-71
2024/02/25 03:42:41;;;;;;;5.60;4.67;;;2.30;99.90;;;1.41;100.00;97006.16;5067473;28;20442;-77
2024/02/25 03:45:09;;;;;;;7.93;5.80;;;2.30;99.90;;;1.38;100.00;97010.00;5067790;28;20450;-73
2024/02/25 03:47:38;;;;;;;6.90;5.63;;;2.20;99.90;;;1.42;100.00;97013.13;5077084;28;20518;-75
2024/02/25 03:50:06;;;;;;;6.10;5.50;;;2.20;99.90;;;1.42;100.00;97013.94;5079060;28;20466;-80
2024/02/25 03:52:34;;;;;;;6.63;5.60;;;2.20;99.90;;;1.37;100.00;97016.31;5056312;28;20564;-78
2024/02/25 03:55:01;;;;;;;7.10;5.43;;;2.20;99.90;;;1.27;100.00;97005.09;5047962;28;20473;-79
2024/02/25 03:57:29;;;;;;;11.87;5.40;;;2.20;99.90;;;1.33;100.00;97017.69;5039419;28;20461;-80
2024/02/25 03:59:56;;;;;;;8.40;5.93;;;2.20;99.90;;;1.31;100.00;97014.41;5041505;28;20461;-75
2024/02/25 04:02:23;;;;;;;7.50;6.37;;;2.20;99.90;;;1.22;100.00;97008.31;5042379;28;20460;-77
2024/02/25 04:04:52;;;;;;;7.87;6.20;;;2.10;99.90;;;1.04;100.00;96991.84;5047100;28;20454;-79
2024/02/25 04:07:19;;;;;;;8.23;6.70;;;2.00;99.90;;;1.16;100.00;97008.22;5044753;28;20870;-83
2024/02/25 04:09:47;;;;;;;8.10;6.50;;;2.00;99.90;;;0.55;100.00;96922.94;5037854;28;20457;-80
2024/02/25 04:12:14;;;;;;;8.00;6.23;;;1.90;99.90;;;1.04;100.00;96987.34;5049991;28;20527;-82
2024/02/25 04:14:41;;;;;;;7.80;7.00;;;1.90;99.90;;;0.97;100.00;96992.56;5033967;28;20443;-80
2024/02/25 04:17:08;;;;;;;8.33;6.87;;;1.80;99.90;;;0.93;100.00;96987.78;5031774;28;20478;-80
2024/02/25 04:19:36;;;;;;;8.17;7.37;;;1.80;99.90;;;0.94;100.00;96992.09;5051118;28;21369;-80
2024/02/25 04:22:05;;;;;;;8.20;6.23;;;1.80;99.90;;;0.86;100.00;96981.53;5052635;28;20942;-83
2024/02/25 04:24:32;;;;;;;6.80;6.10;;;1.80;99.90;;;0.81;100.00;96982.06;5046637;28;20505;-82
2024/02/25 04:26:59;;;;;;;6.60;5.90;;;1.70;99.90;;;0.82;100.00;96981.88;5057456;28;20484;-80
2024/02/25 04:29:26;;;;;;;6.50;5.90;;;1.70;99.90;;;0.78;100.00;96980.59;5044563;28;20449;-78
2024/02/25 04:31:55;;;;;;;7.50;6.27;;;1.70;99.90;;;0.78;100.00;96979.78;5054026;28;20455;-80
2024/02/25 04:34:22;;;;;;;9.87;6.73;;;1.70;99.90;;;0.77;100.00;96973.63;5047781;28;20449;-82
2024/02/25 04:36:49;;;;;;;8.50;6.90;;;1.60;99.90;;;0.65;100.00;96981.19;5052258;28;20461;-76
2024/02/25 04:39:17;;;;;;;8.63;6.70;;;1.50;99.90;;;0.66;100.00;96966.06;5052489;28;20464;-81
2024/02/25 04:41:45;;;;;;;11.33;7.47;;;1.60;99.90;;;0.68;100.00;96969.34;5041122;28;21217;-79
2024/02/25 04:44:12;;;;;;;7.70;6.57;;;1.50;99.90;;;0.58;100.00;96969.59;5038146;28;20456;-79
2024/02/25 04:46:39;;;;;;;8.23;6.67;;;1.50;99.90;;;0.52;100.00;96965.81;5047695;28;20448;-80
2024/02/25 04:49:08;;;;;;;7.33;6.60;;;1.50;99.90;;;0.61;100.00;96979.91;5067228;28;20460;-74
2024/02/25 04:51:35;;;;;;;8.00;7.20;;;1.50;99.90;;;0.58;100.00;96979.41;5073833;28;20466;-80
2024/02/25 04:54:04;;;;;;;9.10;7.23;;;1.50;99.90;;;0.51;100.00;96980.13;5047229;28;20454;-78
2024/02/25 04:56:34;;;;;;;7.90;6.80;;;1.40;99.90;;;0.61;100.00;96973.75;5047104;28;20450;-80
2024/02/25 04:59:02;;;;;;;10.00;7.50;;;1.50;99.90;;;0.62;100.00;96973.56;5047520;28;20453;-79
2024/02/25 05:01:29;;;;;;;9.50;7.10;;;1.50;99.90;;;0.55;100.00;96969.97;5048311;28;20449;-78
2024/02/25 05:03:57;;;;;;;9.87;7.57;;;1.40;99.90;;;0.50;100.00;96973.13;5052286;28;20947;-80
2024/02/25 05:06:25;;;;;;;10.33;7.30;;;1.40;99.90;;;0.54;100.00;96974.47;5046057;28;20449;-81
2024/02/25 05:08:52;;;;;;;12.47;8.53;;;1.40;99.90;;;0.54;100.00;96973.63;5050433;28;20489;-79
2024/02/25 05:11:19;;;;;;;9.93;8.10;;;1.40;99.90;;;0.51;100.00;96974.78;5052254;28;20483;-77
2024/02/25 05:13:50;;;;;;;10.40;8.27;;;1.30;99.90;;;0.52;100.00;96954.38;5056316;28;20445;-77
2024/02/25 05:16:17;;;;;;;8.63;7.37;;;1.40;99.90;;;0.62;100.00;96975.41;5050841;28;20449;-79
2024/02/25 05:18:45;;;;;;;10.97;8.03;;;1.40;99.90;;;0.62;100.00;96978.06;5045849;28;20454;-80
2024/02/25 05:21:12;;;;;;;12.47;7.90;;;1.30;99.90;;;0.64;100.00;96984.00;5044990;28;20448;-78
2024/02/25 05:23:39;;;;;;;10.20;7.50;;;1.40;99.90;;;0.63;100.00;96971.72;5054268;28;20468;-76
2024/02/25 05:26:07;;;;;;;12.73;8.20;;;1.40;99.90;;;0.56;100.00;96972.44;5053818;28;20464;-78
2024/02/25 05:28:34;;;;;;;10.60;8.70;;;1.40;99.90;;;0.58;100.00;96977.56;5043082;28;20462;-78
2024/02/25 05:31:03;;;;;;;10.60;8.83;;;1.30;99.90;;;0.62;100.00;96983.38;5031257;28;20460;-80
2024/02/25 05:33:31;;;;;;;10.93;8.87;;;1.40;99.90;;;0.67;100.00;96976.53;5046754;28;20505;-77
2024/02/25 05:35:58;;;;;;;12.63;9.27;;;1.40;99.90;;;0.62;100.00;96975.41;5042219;28;20464;-73
2024/02/25 05:38:25;;;;;;;10.53;8.83;;;1.40;99.90;;;0.60;100.00;96974.75;5042804;28;20958;-79
2024/02/25 05:40:53;;;;;;;12.37;8.30;;;1.40;99.90;;;0.58;100.00;96974.09;5054845;28;20479;-79
2024/02/25 05:43:20;;;;;;;12.30;7.80;;;1.30;99.90;;;0.55;100.00;96975.28;5050002;28;20442;-80
2024/02/25 05:45:47;;;;;;;10.60;8.53;;;1.30;99.90;;;0.49;100.00;96978.66;5040647;28;20448;-80
2024/02/25 05:48:16;;;;;;;11.87;9.40;;;1.30;99.90;;;0.51;100.00;96974.78;5043485;28;20531;-76
2024/02/25 05:50:43;;;;;;;12.00;9.73;;;1.40;99.90;;;0.48;100.00;96974.34;5058621;28;20798;-80
2024/02/25 05:53:10;;;;;;;11.20;8.70;;;1.30;99.90;;;0.41;100.00;96961.75;5046261;28;20465;-80
2024/02/25 05:55:37;;;;;;;13.00;9.80;;;1.30;99.90;;;0.44;100.00;96978.34;5045777;28;20453;-80
2024/02/25 05:58:05;;;;;;;9.43;8.30;;;1.30;99.90;;;0.37;100.00;96979.06;5054958;28;20788;-76
2024/02/25 06:00:33;;;;;;;10.33;8.33;;;1.30;99.90;;;0.41;100.00;96979.53;5052845;28;20921;-77
2024/02/25 06:03:00;;;;;;;12.90;8.20;;;1.20;99.90;;;0.38;100.00;96974.53;5054701;28;20449;-73
2024/02/25 06:05:30;;;;;;;10.40;8.93;;;1.20;99.90;;;0.34;100.00;96976.75;5049093;28;20547;-79
2024/02/25 06:08:00;;;;;;;11.07;8.27;;;1.20;99.90;;;0.36;100.00;96981.88;5047827;28;20501;-80
2024/02/25 06:10:27;;;;;;;13.63;8.90;;;1.20;99.90;;;0.33;100.00;96976.91;5044269;28;20924;-79
2024/02/25 06:12:56;;;;;;;10.73;9.40;;;1.20;99.90;;;0.27;100.00;96989.06;5052471;28;20513;-79
2024/02/25 06:15:23;;;;;;;14.27;9.50;;;1.10;99.90;;;0.28;100.00;96986.25;5055141;28;20453;-77
2024/02/25 06:17:50;;;;;;;9.30;8.33;;;1.10;99.90;;;-0.19;100.00;96899.53;5055221;28;20448;-77
2024/02/25 06:20:18;;;;;;;11.93;10.07;;;1.10;99.90;;;0.35;100.00;96990.84;5048579;28;21315;-74
2024/02/25 06:22:46;;;;;;;11.20;9.40;;;1.10;99.90;;;0.34;100.00;96991.84;5035712;28;20450;-79
2024/02/25 06:25:13;;;;;;;12.83;10.30;;;1.10;99.90;;;0.28;100.00;96990.72;5052447;28;20453;-79
2024/02/25 06:27:40;;;;;;;12.90;9.50;;;1.10;99.90;;;0.41;100.00;97006.94;5051054;28;20993;-79
2024/02/25 06:30:10;;;;;;;11.97;9.90;;;1.10;99.90;;;0.30;100.00;97003.84;5050840;28;20452;-80
2024/02/25 06:32:38;;;;;;;12.63;10.03;;;1.10;99.90;;;0.26;100.00;96988.25;5063060;28;20466;-80
2024/02/25 06:35:07;;;;;;;12.50;9.57;;;1.20;99.90;;;0.43;100.00;96998.78;5043136;28;20884;-74
2024/02/25 06:37:34;;;;;;;15.33;10.70;;;1.20;99.90;;;0.41;100.00;96990.16;5043919;28;20531;-79
2024/02/25 06:40:03;;;;;;;12.20;10.10;;;1.30;99.90;;;0.45;100.00;96982.66;5050648;28;20926;-75
2024/02/25 06:42:32;;;;;;;13.43;10.67;;;1.30;99.90;;;0.42;100.00;96981.19;5048592;28;20463;-77
2024/02/25 06:44:59;;;;;;;16.17;10.83;;;1.30;99.90;;;0.46;100.00;96976.34;5045309;28;20464;-77
2024/02/25 06:47:26;;;;;;;15.63;11.27;;;1.40;99.90;;;0.09;100.00;96920.28;5061640;28;20472;-80
2024/02/25 06:49:54;;;;;;;14.00;10.73;;;1.40;99.90;;;0.67;100.00;96983.66;5052315;28;20464;-78
2024/02/25 06:52:21;;;;;;;14.67;11.27;;;1.50;99.90;;;0.75;100.00;96974.78;5043291;28;20833;-76
2024/02/25 06:54:49;;;;;;;12.07;10.87;;;1.60;99.90;;;0.82;100.00;96976.56;5056002;28;20456;-77
2024/02/25 06:57:18;;;;;;;13.50;10.33;;;1.60;99.90;;;0.90;100.00;96980.16;5044341;28;20452;-75
2024/02/25 06:59:45;;;;;;;13.33;10.20;;;1.70;99.90;;;0.90;100.00;96991.63;5041901;28;20496;-78
2024/02/25 07:02:12;;;;;;;13.50;9.80;;;1.80;99.90;;;1.06;100.00;96987.16;5046305;28;20507;-81
2024/02/25 07:04:39;;;;;;;12.80;9.53;;;1.90;99.90;;;0.66;100.00;96924.34;5059690;28;20456;-78
2024/02/25 07:07:07;;;;;;;12.40;9.87;;;1.90;99.90;;;1.21;100.00;97000.50;5066326;28;20454;-78
2024/02/25 07:09:34;;;;;;;12.97;9.70;;;2.00;99.90;;;1.32;100.00;97002.75;5046025;28;21282;-77
2024/02/25 07:12:01;;;;;;;13.73;10.40;;;2.10;99.90;;;1.33;100.00;96988.41;5043880;28;20461;-77
2024/02/25 07:14:30;;;;;;;10.90;9.60;;;2.20;99.60;;;1.60;100.00;96996.81;5044142;28;20542;-75
2024/02/25 07:16:57;;;;;;;11.87;8.70;;;2.30;98.70;;;1.25;100.00;96940.59;5032679;28;20481;-78
2024/02/25 07:19:24;;;;;;;10.70;8.57;;;2.40;97.90;;;1.75;100.00;96987.97;5071993;28;20600;-76
2024/02/25 07:21:51;;;;;;;11.10;8.30;;;2.50;97.60;;;1.83;100.00;96996.72;5044640;28;20946;-78
2024/02/25 07:24:18;;;;;;;9.63;8.63;;;2.50;96.60;;;1.89;100.00;96996.97;5076317;28;20847;-77
2024/02/25 07:26:46;;;;;;;8.90;7.70;;;2.60;96.40;;;1.96;99.24;96998.72;5042865;28;20500;-78
2024/02/25 07:29:14;;;;;;;8.70;7.80;;;2.70;95.40;;;2.08;99.04;96998.25;5037886;28;20476;-77
2024/02/25 07:31:42;;;;;;;8.03;7.27;;;2.80;94.50;;;2.14;98.44;96988.69;5077380;28;20449;-78
2024/02/25 07:34:10;;;;;;;8.40;7.50;;;2.90;94.20;;;2.26;98.04;96998.66;5040583;28;20464;-77
2024/02/25 07:36:37;;;;;;;7.73;7.03;;;3.00;93.70;;;2.26;97.54;96992.47;5039628;28;20481;-78
2024/02/25 07:39:05;;;;;;;6.87;6.17;;;3.00;93.10;;;2.30;96.77;96990.28;5037822;28;20445;-78
2024/02/25 07:41:32;;;;;;;8.83;6.90;;;3.00;93.30;;;1.86;97.28;96936.88;5040496;28;20457;-77
2024/02/25 07:43:59;;;;;;;8.27;7.37;;;2.90;93.10;;;2.13;96.90;96982.50;5059891;28;20455;-79
2024/02/25 07:46:27;;;;;;;10.00;6.90;;;2.90;93.10;;;2.20;97.59;96993.25;5043635;28;20460;-78
2024/02/25 07:48:56;;;;;;;7.23;6.50;;;3.00;93.40;;;2.49;96.09;97000.31;5036079;28;20500;-80
2024/02/25 07:51:23;;;;;;;7.60;6.73;;;3.10;93.60;;;2.60;96.04;96995.50;5048151;28;21133;-79
2024/02/25 07:53:50;;;;;;;8.33;7.07;;;3.20;93.30;;;2.69;96.48;96995.19;5068879;28;20468;-77
2024/02/25 07:56:23;;;;;;;7.23;6.20;;;3.20;93.30;;;2.64;94.82;96996.78;5047486;28;20457;-78
2024/02/25 07:58:50;;;;;;;8.53;6.80;;;3.30;92.60;;;2.94;98.01;96989.50;5054672;28;20556;-76
2024/02/25 08:01:18;;;;;;;7.97;7.07;;;3.50;93.30;;;3.15;94.66;96992.31;5053649;28;20460;-77
2024/02/25 08:03:45;;;;;;;7.47;6.70;;;3.80;92.50;;;3.03;93.05;96992.84;5037774;28;20956;-78
2024/02/25 08:06:14;;;;;;;7.10;6.40;;;3.80;90.40;;;2.96;92.76;96987.44;5051998;28;20445;-79
2024/02/25 08:08:41;;;;;;;7.80;7.10;;;3.80;90.20;;;3.03;92.94;96987.50;5048823;28;21107;-76
2024/02/25 08:11:08;;;;;;;6.83;6.10;;;3.80;90.30;;;2.95;92.15;96987.63;5040196;28;20885;-77
2024/02/25 08:13:35;;;;;;;7.90;7.10;;;3.80;90.00;;;3.18;91.44;96991.94;5039913;28;20450;-76
2024/02/25 08:16:03;;;;;;;6.73;6.03;;;3.80;90.10;;;3.25;91.41;96984.78;5058901;28;20472;-70
2024/02/25 08:18:34;;;;;;;7.20;5.80;;;3.90;89.70;;;3.10;90.73;96977.69;5034625;28;20979;-70
2024/02/25 08:21:03;;;;;;;6.80;6.10;;;3.90;89.10;;;3.25;90.24;96984.78;5030485;28;20449;-71
2024/02/25 08:23:32;;;;;;;6.77;6.07;;;4.00;88.60;;;3.23;91.22;96984.16;5049108;28;20468;-72
2024/02/25 08:26:03;;;;;;;7.87;6.10;;;4.00;88.60;;;3.39;89.92;96983.88;5049962;28;20481;-73
2024/02/25 08:28:30;;;;;;;7.43;6.47;;;4.10;88.30;;;3.31;89.32;96981.38;5048724;28;20573;-70
2024/02/25 08:30:58;;;;;;;7.77;6.90;;;4.10;87.50;;;3.54;89.14;96977.59;5068111;28;20455;-78
2024/02/25 08:33:25;;;;;;;7.00;6.13;;;4.20;87.80;;;3.55;88.14;96968.56;5047493;28;21003;-79
2024/02/25 08:35:52;;;;;;;6.70;5.80;;;4.30;87.40;;;3.47;88.58;96977.56;5049781;28;20813;-79
2024/02/25 08:38:19;;;;;;;8.07;5.20;;;4.30;86.70;;;3.62;88.88;96973.94;5076202;28;20640;-81
2024/02/25 08:40:48;;;;;;;7.60;6.10;;;4.40;87.00;;;3.31;88.32;96925.28;5049079;28;20457;-79
2024/02/25 08:43:15;;;;;;;6.40;5.57;;;4.40;87.00;;;3.84;88.17;96988.03;5048650;28;20953;-80
2024/02/25 08:45:43;;;;;;;6.30;5.70;;;4.50;87.00;;;3.95;87.70;96974.13;5049829;28;20437;-78
2024/02/25 08:48:10;;;;;;;5.97;5.50;;;4.60;86.70;;;4.07;86.74;96976.25;5041606;28;20466;-79
2024/02/25 08:50:38;;;;;;;6.57;5.97;;;4.70;86.00;;;4.28;85.26;96977.97;5049440;28;20465;-80
2024/02/25 08:53:05;;;;;;;6.83;6.00;;;4.90;85.80;;;4.34;85.88;96965.66;5049836;28;20450;-79
2024/02/25 08:55:32;;;;;;;5.60;4.90;;;5.00;85.80;;;4.52;84.15;96971.25;5066945;28;20461;-78
2024/02/25 08:58:01;;;;;;;5.33;4.80;;;5.20;85.10;;;4.63;84.00;96958.31;5051685;28;21086;-75
2024/02/25 09:00:29;;;;;;;5.50;4.93;;;5.30;84.90;;;4.71;82.37;96971.47;5047396;28;20493;-77
2024/02/25 09:02:57;;;;;;;5.20;4.73;;;5.40;84.10;;;4.71;83.27;96976.81;5040481;28;20442;-79
2024/02/25 09:05:24;;;;;;;6.20;5.60;;;5.40;84.10;;;4.21;83.50;96919.13;5048686;28;20952;-77
2024/02/25 09:07:51;;;;;;;5.60;4.50;;;5.30;84.10;;;4.74;81.72;96968.38;5048161;28;20464;-73
2024/02/25 09:10:19;;;;;;;4.87;4.37;;;5.30;83.80;;;4.74;82.38;96971.06;5046504;28;20457;-73
2024/02/25 09:12:48;;;;;;;5.73;4.47;;;5.40;83.70;;;4.91;80.81;96965.31;5059157;28;20544;-73
2024/02/25 09:15:18;;;;;;;9.27;4.40;;;5.50;83.40;;;4.90;80.28;96947.59;5046219;28;20461;-75
2024/02/25 09:17:46;;;;;;;5.50;4.63;;;5.60;82.80;;;5.22;78.61;96955.84;5076974;28;20444;-76
2024/02/25 09:20:13;;;;;;;4.80;4.30;;;5.80;82.20;;;5.28;79.04;96955.03;5053190;28;20971;-75
2024/02/25 09:22:40;;;;;;;4.83;4.13;;;5.90;82.20;;;5.39;78.21;96935.66;5048133;28;20809;-73
2024/02/25 09:25:09;;;;;;;4.33;3.93;;;6.00;82.10;;;5.55;78.13;96949.63;5037897;28;20881;-74
2024/02/25 09:27:36;;;;;;;6.40;4.33;;;6.10;81.80;;;5.57;77.01;96947.56;5050611;28;20462;-77
2024/02/25 09:30:04;;;;;;;4.00;3.60;;;6.20;81.20;;;5.75;76.13;96959.47;5038445;28;20476;-75
2024/02/25 09:32:33;;;;;;;5.47;3.70;;;6.30;80.30;;;5.63;75.33;96909.19;5034491;28;20468;-77
2024/02/25 09:35:00;;;;;;;4.07;3.67;;;6.50;80.10;;;5.94;75.82;96942.50;5041105;28;20456;-78
2024/02/25 09:37:28;;;;;;;3.53;3.10;;;6.50;79.80;;;5.86;74.30;96934.69;5038784;28;20460;-74
2024/02/25 09:39:55;;;;;;;7.57;3.90;;;6.50;79.20;;;6.04;74.09;96951.97;5059117;28;20468;-75
2024/02/25 09:42:22;;;;;;;3.83;3.50;;;6.70;79.40;;;6.15;74.72;96948.66;5041508;28;20470;-74
2024/02/25 09:44:53;;;;;;;3.53;3.23;;;6.70;79.70;;;6.29;73.36;96933.28;5043006;28;20452;-75
2024/02/25 09:47:22;;;;;;;3.53;2.93;;;6.80;79.20;;;6.36;72.79;96917.97;5043617;28;20447;-73
2024/02/25 09:49:51;;;;;;;3.43;2.67;;;6.90;78.70;;;6.13;72.68;96923.06;5045444;28;20471;-75
2024/02/25 09:52:19;;;;;;;4.10;2.77;;;6.90;78.10;;;6.13;72.36;96929.22;5040949;28;20463;-76
2024/02/25 09:54:47;;;;;;;4.07;3.70;;;6.80;77.90;;;6.05;72.69;96932.19;5037921;28;20459;-75
2024/02/25 09:57:14;;;;;;;3.83;3.10;;;6.70;78.00;;;6.18;73.51;96925.91;5044976;28;20523;-74
2024/02/25 09:59:42;;;;;;;3.83;3.43;;;6.70;78.40;;;6.13;73.20;96934.59;5040655;28;20555;-71
2024/02/25 10:02:13;;;;;;;4.17;3.77;;;6.70;78.30;;;6.35;72.33;96928.94;5067561;28;20889;-71
2024/02/25 10:04:46;;;;;;;3.43;3.13;;;6.90;78.10;;;6.85;71.55;96922.84;5039426;28;20491;-69
2024/02/25 10:07:16;;;;;;;3.70;3.40;;;7.20;78.10;;;7.07;71.13;96925.13;5044588;28;20602;-69
2024/02/25 10:09:44;;;;;;;4.90;3.13;;;7.50;77.90;;;7.06;69.76;96921.63;5042992;28;21076;-71
2024/02/25 10:12:12;;;;;;;4.20;3.00;;;7.50;77.20;;;6.99;68.58;96915.47;5042811;28;20521;-70
2024/02/25 10:14:41;;;;;;;4.30;3.20;;;7.50;76.60;;;7.01;69.44;96913.41;5046657;28;20464;-71
2024/02/25 10:17:11;;;;;;;4.60;2.37;;;7.60;76.20;;;7.50;66.83;96913.56;5040371;28;20469;-71
2024/02/25 10:19:38;;;;;;;4.20;2.67;;;7.90;75.80;;;7.85;65.63;96906.78;5038417;28;20495;-71
2024/02/25 10:22:08;;;;;;;3.70;2.80;;;8.20;74.70;;;7.82;63.47;96906.41;5040948;28;20457;-74
2024/02/25 10:24:40;;;;;;;4.47;3.07;;;8.40;73.50;;;7.71;64.63;96897.22;5063427;28;20541;-72
2024/02/25 10:27:09;;;;;;;3.40;2.50;;;8.40;72.70;;;7.76;63.73;96895.50;5045978;28;20463;-73